createdAt,value
2018-01-02T00:01:50.927Z,4.50
2018-01-02T00:04:17.659Z,3.80
2018-01-02T00:06:44.369Z,3.50
2018-01-02T00:09:11.110Z,3.07
2018-01-02T00:11:37.843Z,3.33
2018-01-02T00:14:04.557Z,3.63
2018-01-02T00:16:31.294Z,3.20
2018-01-02T00:18:58.067Z,5.00
2018-01-02T00:21:24.801Z,5.93
2018-01-02T00:23:51.516Z,4.47
2018-01-02T00:26:18.267Z,3.67
2018-01-02T00:28:44.996Z,4.37
2018-01-02T00:31:11.750Z,3.63
2018-01-02T00:33:38.523Z,3.60
2018-01-02T00:36:05.234Z,3.87
2018-01-02T00:38:31.959Z,3.23
2018-01-02T00:40:58.698Z,2.87
2018-01-02T00:43:25.413Z,3.43
2018-01-02T00:45:52.164Z,3.40
2018-01-02T00:48:18.912Z,3.20
2018-01-02T00:50:45.644Z,4.17
2018-01-02T00:53:12.370Z,3.70
2018-01-02T00:55:39.125Z,3.90
2018-01-02T00:58:05.864Z,4.27
2018-01-02T01:00:32.590Z,3.40
2018-01-02T01:02:59.338Z,4.23
2018-01-02T01:05:26.111Z,4.17
2018-01-02T01:07:52.828Z,4.33
2018-01-02T01:10:19.574Z,3.90
2018-01-02T01:12:46.296Z,3.80
2018-01-02T01:15:13.022Z,4.10
2018-01-02T01:17:39.777Z,3.70
2018-01-02T01:20:06.497Z,4.67
2018-01-02T01:22:33.235Z,4.00
2018-01-02T01:24:59.965Z,4.97
2018-01-02T01:27:26.709Z,4.23
2018-01-02T01:29:53.453Z,5.30
2018-01-02T01:32:20.185Z,5.03
2018-01-02T01:34:46.921Z,4.63
2018-01-02T01:37:13.678Z,4.20
2018-01-02T01:39:40.398Z,4.80
2018-01-02T01:42:07.105Z,4.70
2018-01-02T01:44:33.860Z,5.00
2018-01-02T01:47:00.597Z,5.00
2018-01-02T01:49:27.333Z,5.10
2018-01-02T01:51:54.051Z,5.00
2018-01-02T01:54:20.767Z,4.97
2018-01-02T01:56:47.466Z,5.30
2018-01-02T01:59:14.206Z,6.60
2018-01-02T02:01:40.931Z,6.90
2018-01-02T02:04:07.678Z,10.07
2018-01-02T02:06:34.407Z,10.97
2018-01-02T02:09:01.161Z,9.00
2018-01-02T02:11:27.886Z,8.03
2018-01-02T02:13:54.598Z,8.67
2018-01-02T02:16:21.371Z,7.90
2018-01-02T02:18:48.119Z,8.20
2018-01-02T02:21:14.866Z,8.97
2018-01-02T02:23:41.602Z,6.53
2018-01-02T02:26:08.347Z,7.90
2018-01-02T02:28:35.088Z,9.90
2018-01-02T02:31:01.828Z,10.57
2018-01-02T02:33:28.565Z,8.43
2018-01-02T02:35:55.293Z,10.00
2018-01-02T02:38:22.054Z,11.70
2018-01-02T02:40:54.797Z,10.90
2018-01-02T02:43:21.554Z,10.23
2018-01-02T02:45:48.290Z,10.50
2018-01-02T02:48:15.028Z,10.07
2018-01-02T02:50:41.754Z,10.00
2018-01-02T02:53:08.504Z,11.87
2018-01-02T02:55:35.221Z,10.87
2018-01-02T02:58:01.943Z,10.47
2018-01-02T03:00:28.689Z,11.10
2018-01-02T03:02:55.416Z,10.90
2018-01-02T03:05:22.283Z,11.33
2018-01-02T03:07:49.017Z,9.90
2018-01-02T03:10:15.730Z,9.67
2018-01-02T03:12:42.450Z,9.53
2018-01-02T03:15:09.183Z,8.87
2018-01-02T03:17:35.916Z,9.37
2018-01-02T03:20:02.658Z,9.80
2018-01-02T03:22:29.404Z,11.40
2018-01-02T03:24:56.126Z,10.30
2018-01-02T03:27:22.853Z,11.80
2018-01-02T03:29:49.604Z,11.40
2018-01-02T03:32:16.340Z,11.20
2018-01-02T03:34:43.059Z,11.87
2018-01-02T03:37:09.780Z,12.30
2018-01-02T03:39:36.536Z,10.20
2018-01-02T03:42:03.262Z,12.57
2018-01-02T03:44:30.019Z,10.87
2018-01-02T03:46:56.736Z,11.53
2018-01-02T03:49:23.496Z,11.30
2018-01-02T03:51:50.227Z,11.70
2018-01-02T03:54:16.962Z,11.13
2018-01-02T03:56:43.691Z,12.63
2018-01-02T03:59:10.451Z,10.40
2018-01-02T04:01:37.177Z,10.40
2018-01-02T04:04:03.906Z,13.60
2018-01-02T04:06:30.658Z,12.50
2018-01-02T04:08:57.372Z,15.10
2018-01-02T04:11:24.110Z,14.43
2018-01-02T04:13:50.858Z,14.43
2018-01-02T04:16:17.590Z,13.50
2018-01-02T04:18:44.322Z,14.47
2018-01-02T04:21:11.065Z,15.07
2018-01-02T04:23:37.795Z,17.20
2018-01-02T04:26:04.551Z,13.10
2018-01-02T04:28:31.350Z,12.90
2018-01-02T04:30:58.067Z,13.50
2018-01-02T04:33:24.797Z,13.35
2018-01-02T04:35:51.557Z,13.63
2018-01-02T04:38:19.165Z,11.93
2018-01-02T04:40:45.911Z,13.83
2018-01-02T04:43:12.638Z,14.60
2018-01-02T04:45:39.360Z,15.83
2018-01-02T04:48:06.084Z,13.50
2018-01-02T04:50:32.831Z,14.02
2018-01-02T04:52:59.567Z,14.45
2018-01-02T04:55:26.317Z,14.35
2018-01-02T04:57:53.050Z,14.70
2018-01-02T05:00:19.793Z,14.07
2018-01-02T05:02:46.528Z,16.50
2018-01-02T05:05:13.271Z,16.23
2018-01-02T05:07:40.014Z,13.60
2018-01-02T05:10:06.741Z,14.25
2018-01-02T05:12:33.501Z,13.95
2018-01-02T05:15:00.227Z,14.25
2018-01-02T05:17:26.965Z,13.88
2018-01-02T05:19:53.705Z,14.85
2018-01-02T05:22:20.471Z,13.55
2018-01-02T05:24:47.193Z,14.32
2018-01-02T05:27:13.959Z,13.88
2018-01-02T05:29:40.678Z,12.88
2018-01-02T05:32:07.402Z,12.93
2018-01-02T05:34:34.177Z,12.00
2018-01-02T05:37:00.925Z,13.70
2018-01-02T05:39:27.658Z,14.55
2018-01-02T05:41:54.401Z,15.57
2018-01-02T05:44:21.112Z,13.30
2018-01-02T05:46:47.858Z,13.40
2018-01-02T05:49:14.608Z,14.10
2018-01-02T05:51:41.334Z,16.55
2018-01-02T05:54:08.074Z,13.82
2018-01-02T05:56:34.810Z,14.98
2018-01-02T05:59:01.549Z,13.70
2018-01-02T06:01:28.265Z,13.73
2018-01-02T06:03:54.996Z,12.87
2018-01-02T06:06:21.738Z,11.75
2018-01-02T06:08:48.461Z,13.20
2018-01-02T06:11:15.221Z,12.10
2018-01-02T06:13:41.928Z,10.57
2018-01-02T06:16:08.645Z,12.02
2018-01-02T06:18:35.406Z,11.25
2018-01-02T06:21:03.122Z,12.02
2018-01-02T06:23:29.853Z,13.02
2018-01-02T06:25:56.601Z,11.90
2018-01-02T06:28:23.326Z,10.32
2018-01-02T06:30:50.054Z,11.85
2018-01-02T06:33:16.796Z,12.20
2018-01-02T06:35:43.520Z,12.15
2018-01-02T06:38:10.264Z,12.25
2018-01-02T06:40:37.001Z,11.25
2018-01-02T06:43:03.742Z,11.80
2018-01-02T06:45:30.449Z,9.65
2018-01-02T06:47:57.184Z,12.95
2018-01-02T06:50:23.923Z,13.82
2018-01-02T06:52:50.637Z,12.50
2018-01-02T06:55:17.404Z,12.48
2018-01-02T06:57:44.143Z,13.57
2018-01-02T07:00:10.936Z,12.18
2018-01-02T07:02:37.677Z,11.15
2018-01-02T07:05:04.442Z,10.95
2018-01-02T07:07:31.182Z,10.20
2018-01-02T07:09:57.965Z,12.80
2018-01-02T07:12:24.722Z,9.73
2018-01-02T07:14:51.506Z,11.05
2018-01-02T07:17:18.280Z,11.32
2018-01-02T07:19:45.008Z,10.60
2018-01-02T07:22:11.732Z,10.63
2018-01-02T07:24:38.470Z,9.10
2018-01-02T07:27:05.211Z,10.45
2018-01-02T07:29:31.980Z,11.18
2018-01-02T07:31:58.728Z,11.40
2018-01-02T07:34:25.485Z,9.73
2018-01-02T07:36:52.210Z,9.85
2018-01-02T07:39:18.973Z,10.98
2018-01-02T07:41:45.700Z,10.90
2018-01-02T07:44:12.461Z,12.37
2018-01-02T07:46:39.213Z,11.65
2018-01-02T07:49:05.938Z,10.43
2018-01-02T07:51:32.676Z,12.68
2018-01-02T07:53:59.427Z,12.65
2018-01-02T07:56:26.161Z,11.30
2018-01-02T07:58:52.904Z,12.82
2018-01-02T08:01:19.650Z,13.05
2018-01-02T08:03:46.392Z,11.40
2018-01-02T08:06:13.122Z,10.45
2018-01-02T08:08:39.870Z,10.75
2018-01-02T08:11:06.593Z,11.87
2018-01-02T08:13:33.314Z,11.80
2018-01-02T08:16:00.067Z,12.35
2018-01-02T08:18:26.778Z,10.70
2018-01-02T08:20:53.487Z,11.77
2018-01-02T08:23:20.240Z,11.93
2018-01-02T08:25:46.958Z,12.17
2018-01-02T08:28:13.744Z,11.57
2018-01-02T08:30:40.495Z,11.27
2018-01-02T08:33:07.234Z,12.80
2018-01-02T08:35:33.954Z,11.35
2018-01-02T08:38:00.715Z,12.47
2018-01-02T08:40:27.438Z,11.30
2018-01-02T08:42:54.146Z,12.63
2018-01-02T08:45:20.883Z,12.85
2018-01-02T08:47:47.602Z,14.23
2018-01-02T08:50:14.321Z,13.13
2018-01-02T08:52:41.055Z,12.40
2018-01-02T08:55:07.782Z,13.77
2018-01-02T08:57:34.540Z,14.50
2018-01-02T09:00:01.253Z,15.80
2018-01-02T09:02:27.985Z,14.15
2018-01-02T09:04:54.729Z,15.40
2018-01-02T09:07:21.468Z,15.07
2018-01-02T09:09:48.206Z,16.07
2018-01-02T09:12:20.663Z,13.90
2018-01-02T09:14:49.334Z,13.70
2018-01-02T09:17:16.061Z,14.70
2018-01-02T09:19:42.817Z,14.52
2018-01-02T09:22:09.554Z,15.27
2018-01-02T09:24:36.303Z,14.47
2018-01-02T09:27:03.033Z,14.73
2018-01-02T09:29:29.779Z,16.60
2018-01-02T09:31:56.576Z,16.17
2018-01-02T09:34:23.309Z,14.95
2018-01-02T09:36:50.075Z,13.97
2018-01-02T09:39:16.816Z,14.47
2018-01-02T09:41:43.565Z,16.23
2018-01-02T09:44:10.328Z,15.20
2018-01-02T09:46:37.047Z,16.47
2018-01-02T09:49:03.798Z,15.83
2018-01-02T09:51:30.549Z,16.27
2018-01-02T09:53:57.301Z,13.60
2018-01-02T09:56:24.011Z,13.10
2018-01-02T09:58:50.762Z,14.07
2018-01-02T10:01:17.474Z,16.73
2018-01-02T10:03:44.220Z,17.57
2018-01-02T10:06:10.974Z,16.10
2018-01-02T10:08:37.688Z,14.70
2018-01-02T10:11:04.425Z,17.10
2018-01-02T10:13:31.188Z,17.07
2018-01-02T10:15:57.912Z,17.20
2018-01-02T10:18:24.633Z,19.40
2018-01-02T10:20:51.374Z,20.00
2018-01-02T10:23:18.102Z,16.67
2018-01-02T10:25:44.882Z,17.87
2018-01-02T10:28:11.600Z,18.20
2018-01-02T10:30:38.311Z,19.10
2018-01-02T10:33:05.045Z,21.17
2018-01-02T10:35:31.778Z,20.87
2018-01-02T10:37:58.530Z,19.70
2018-01-02T10:40:25.250Z,18.57
2018-01-02T10:42:52.004Z,18.90
2018-01-02T10:45:18.719Z,17.00
2018-01-02T10:47:45.454Z,18.87
2018-01-02T10:50:12.189Z,17.10
2018-01-02T10:52:38.914Z,18.90
2018-01-02T10:55:05.654Z,16.47
2018-01-02T10:57:32.430Z,16.93
2018-01-02T10:59:59.143Z,18.10
2018-01-02T11:02:25.851Z,17.50
2018-01-02T11:04:52.573Z,16.43
2018-01-02T11:07:19.283Z,15.83
2018-01-02T11:09:46.004Z,14.60
2018-01-02T11:12:14.530Z,14.90
2018-01-02T11:14:41.278Z,15.30
2018-01-02T11:17:08.021Z,18.27
2018-01-02T11:19:34.747Z,19.60
2018-01-02T11:22:01.478Z,19.40
2018-01-02T11:24:28.200Z,20.60
2018-01-02T11:26:54.933Z,20.20
2018-01-02T11:29:21.650Z,19.83
2018-01-02T11:31:48.381Z,20.57
2018-01-02T11:34:15.135Z,19.20
2018-01-02T11:36:41.859Z,21.03
2018-01-02T11:39:08.586Z,20.30
2018-01-02T11:41:35.327Z,22.23
2018-01-02T11:44:02.104Z,21.00
2018-01-02T11:46:28.823Z,21.50
2018-01-02T11:48:55.552Z,19.43
2018-01-02T11:51:22.257Z,20.47
2018-01-02T11:53:48.988Z,22.30
2018-01-02T11:56:16.797Z,19.70
2018-01-02T11:58:43.623Z,19.37
2018-01-02T12:01:10.341Z,18.87
2018-01-02T12:03:37.078Z,19.43
2018-01-02T12:06:03.790Z,19.23
2018-01-02T12:08:30.525Z,18.43
2018-01-02T12:10:57.254Z,18.23
2018-01-02T12:13:23.982Z,19.80
2018-01-02T12:15:50.699Z,18.87
2018-01-02T12:18:17.428Z,19.60
2018-01-02T12:20:44.134Z,20.43
2018-01-02T12:23:21.192Z,20.20
2018-01-02T12:25:47.958Z,21.27
2018-01-02T12:28:14.678Z,21.40
2018-01-02T12:30:41.434Z,21.70
2018-01-02T12:33:08.155Z,22.70
2018-01-02T12:35:34.877Z,18.80
2018-01-02T12:38:01.615Z,21.53
2018-01-02T12:40:28.338Z,21.57
2018-01-02T12:42:55.061Z,19.70
2018-01-02T12:45:21.817Z,20.07
2018-01-02T12:47:48.533Z,20.83
2018-01-02T12:50:15.259Z,21.50
2018-01-02T12:52:42.005Z,27.70
2018-01-02T12:55:08.729Z,27.37
2018-01-02T12:57:35.477Z,26.73
2018-01-02T13:00:02.219Z,26.43
2018-01-02T13:02:28.955Z,26.40
2018-01-02T13:04:55.676Z,30.87
2018-01-02T13:07:22.414Z,27.77
2018-01-02T13:09:49.120Z,24.17
2018-01-02T13:12:15.836Z,21.80
2018-01-02T13:14:42.576Z,20.57
2018-01-02T13:17:09.302Z,23.60
2018-01-02T13:19:36.012Z,23.70
2018-01-02T13:22:02.742Z,24.20
2018-01-02T13:24:29.465Z,28.60
2018-01-02T13:26:56.191Z,30.80
2018-01-02T13:29:22.940Z,28.50
2018-01-02T13:31:49.648Z,32.90
2018-01-02T13:34:16.373Z,29.20
2018-01-02T13:36:43.126Z,30.80
2018-01-02T13:39:09.868Z,30.80
2018-01-02T13:41:36.605Z,27.90
2018-01-02T13:44:03.339Z,30.27
2018-01-02T13:46:30.109Z,29.60
2018-01-02T13:48:56.832Z,27.63
2018-01-02T13:51:23.605Z,28.70
2018-01-02T13:53:50.318Z,28.80
2018-01-02T13:56:17.024Z,30.30
2018-01-02T13:58:43.779Z,28.87
2018-01-02T14:01:10.540Z,29.43
2018-01-02T14:03:37.245Z,30.20
2018-01-02T14:06:03.983Z,29.37
2018-01-02T14:08:30.719Z,28.67
2018-01-02T14:10:57.428Z,30.00
2018-01-02T14:13:24.155Z,29.30
2018-01-02T14:15:50.871Z,31.00
2018-01-02T14:18:17.630Z,31.37
2018-01-02T14:20:44.389Z,30.60
2018-01-02T14:23:11.116Z,29.77
2018-01-02T14:25:37.850Z,29.90
2018-01-02T14:28:04.585Z,29.97
2018-01-02T14:30:31.313Z,30.37
2018-01-02T14:32:58.051Z,29.90
2018-01-02T14:35:24.778Z,28.50
2018-01-02T14:37:51.492Z,28.60
2018-01-02T14:40:18.218Z,29.60
2018-01-02T14:42:45.007Z,29.57
2018-01-02T14:45:11.725Z,27.33
2018-01-02T14:47:38.467Z,28.83
2018-01-02T14:50:05.211Z,28.20
2018-01-02T14:52:31.954Z,27.50
2018-01-02T14:54:58.665Z,26.40
2018-01-02T14:57:25.398Z,28.90
2018-01-02T14:59:52.116Z,29.70
2018-01-02T15:02:18.837Z,27.50
2018-01-02T15:04:45.586Z,26.20
2018-01-02T15:07:12.311Z,26.40
2018-01-02T15:09:39.050Z,28.30
2018-01-02T15:12:05.804Z,28.37
2018-01-02T15:14:32.588Z,28.37
2018-01-02T15:16:59.304Z,28.90
2018-01-02T15:19:26.041Z,27.03
2018-01-02T15:21:52.759Z,27.40
2018-01-02T15:24:19.499Z,25.63
2018-01-02T15:26:46.238Z,23.50
2018-01-02T15:29:12.961Z,24.17
2018-01-02T15:31:39.684Z,18.57
2018-01-02T15:34:06.425Z,18.13
2018-01-02T15:36:37.709Z,16.53
2018-01-02T15:39:04.998Z,16.00
2018-01-02T15:41:31.828Z,19.50
2018-01-02T15:43:58.618Z,22.10
2018-01-02T15:46:25.525Z,19.97
2018-01-02T15:48:52.272Z,22.20
2018-01-02T15:51:19.001Z,22.07
2018-01-02T15:53:45.733Z,21.27
2018-01-02T15:56:12.503Z,21.57
2018-01-02T15:58:39.218Z,21.40
2018-01-02T16:01:05.981Z,21.70
2018-01-02T16:03:32.722Z,21.73
2018-01-02T16:06:00.877Z,20.33
2018-01-02T16:08:43.810Z,17.83
2018-01-02T16:11:10.533Z,14.97
2018-01-02T16:13:37.249Z,18.40
2018-01-02T16:16:03.998Z,18.87
2018-01-02T16:18:30.741Z,26.20
2018-01-02T16:20:57.463Z,21.87
2018-01-02T16:23:24.220Z,24.60
2018-01-02T16:25:50.953Z,22.40
2018-01-02T16:28:17.691Z,22.83
2018-01-02T16:30:44.424Z,21.10
2018-01-02T16:33:11.158Z,22.63
2018-01-02T16:35:37.903Z,23.57
2018-01-02T16:38:04.646Z,21.53
2018-01-02T16:40:31.363Z,21.80
2018-01-02T16:42:58.102Z,25.10
2018-01-02T16:45:24.830Z,16.23
2018-01-02T16:47:51.559Z,16.03
2018-01-02T16:50:18.290Z,17.23
2018-01-02T16:52:45.041Z,17.00
2018-01-02T16:55:11.765Z,18.10
2018-01-02T16:57:38.501Z,17.03
2018-01-02T17:00:05.214Z,16.80
2018-01-02T17:02:31.937Z,16.30
2018-01-02T17:04:58.661Z,17.17
2018-01-02T17:07:25.397Z,17.73
2018-01-02T17:09:52.133Z,16.63
2018-01-02T17:12:18.871Z,21.10
2018-01-02T17:14:45.599Z,19.10
2018-01-02T17:17:12.319Z,20.73
2018-01-02T17:19:39.044Z,20.80
2018-01-02T17:22:05.798Z,19.30
2018-01-02T17:24:32.523Z,18.40
2018-01-02T17:26:59.243Z,18.70
2018-01-02T17:29:25.983Z,21.47
2018-01-02T17:31:52.714Z,18.47
2018-01-02T17:34:19.438Z,14.80
2018-01-02T17:36:46.189Z,12.90
2018-01-02T17:39:12.912Z,16.20
2018-01-02T17:41:39.670Z,16.63
2018-01-02T17:44:06.430Z,19.10
2018-01-02T17:46:33.153Z,16.87
2018-01-02T17:48:59.884Z,18.80
2018-01-02T17:51:26.621Z,16.73
2018-01-02T17:53:53.546Z,14.50
2018-01-02T17:56:21.455Z,14.00
2018-01-02T17:58:48.300Z,15.90
2018-01-02T18:01:15.022Z,15.60
2018-01-02T18:03:41.751Z,19.33
2018-01-02T18:06:08.504Z,17.07
2018-01-02T18:08:35.222Z,18.03
2018-01-02T18:11:01.985Z,16.80
2018-01-02T18:13:28.723Z,14.10
2018-01-02T18:15:55.462Z,14.10
2018-01-02T18:18:22.204Z,16.90
2018-01-02T18:20:48.948Z,17.30
2018-01-02T18:23:15.690Z,17.37
2018-01-02T18:25:42.429Z,18.65
2018-01-02T18:28:09.178Z,16.83
2018-01-02T18:30:35.920Z,13.93
2018-01-02T18:33:02.650Z,15.10
2018-01-02T18:35:29.416Z,15.37
2018-01-02T18:37:56.152Z,16.05
2018-01-02T18:40:22.899Z,16.55
2018-01-02T18:43:07.784Z,15.03
2018-01-02T18:45:52.326Z,17.92
2018-01-02T18:48:19.089Z,18.40
2018-01-02T18:50:45.884Z,16.62
2018-01-02T18:53:12.615Z,17.57
2018-01-02T18:55:39.366Z,17.15
2018-01-02T18:58:06.110Z,16.98
2018-01-02T19:00:32.926Z,16.98
2018-01-02T19:02:59.687Z,15.33
2018-01-02T19:05:26.458Z,14.70
2018-01-02T19:07:53.169Z,16.50
2018-01-02T19:10:19.919Z,15.07
2018-01-02T19:12:46.659Z,15.60
2018-01-02T19:15:13.383Z,15.60
2018-01-02T19:17:40.186Z,15.90
2018-01-02T19:20:06.925Z,17.43
2018-01-02T19:22:33.666Z,16.48
2018-01-02T19:25:00.406Z,17.23
2018-01-02T19:27:27.138Z,18.70
2018-01-02T19:29:53.882Z,15.25
2018-01-02T19:32:20.613Z,15.38
2018-01-02T19:34:47.365Z,15.35
2018-01-02T19:37:14.157Z,15.65
2018-01-02T19:39:40.902Z,14.30
2018-01-02T19:42:07.650Z,11.68
2018-01-02T19:44:34.376Z,11.70
2018-01-02T19:47:01.121Z,12.55
2018-01-02T19:49:27.884Z,11.30
2018-01-02T19:51:54.671Z,12.90
2018-01-02T19:54:21.555Z,13.48
2018-01-02T19:56:48.329Z,11.40
2018-01-02T19:59:15.070Z,11.00
2018-01-02T20:01:41.819Z,14.23
2018-01-02T20:04:08.565Z,21.90
2018-01-02T20:06:35.302Z,20.62
2018-01-02T20:09:02.072Z,18.40
2018-01-02T20:11:28.836Z,18.80
2018-01-02T20:13:56.057Z,17.17
2018-01-02T20:16:22.813Z,14.95
2018-01-02T20:18:49.568Z,15.57
2018-01-02T20:21:16.310Z,14.43
2018-01-02T20:23:43.063Z,13.10
2018-01-02T20:26:09.802Z,13.25
2018-01-02T20:28:36.533Z,12.33
2018-01-02T20:31:03.284Z,9.82
2018-01-02T20:33:30.015Z,9.48
2018-01-02T20:35:56.755Z,10.65
2018-01-02T20:38:23.513Z,8.88
2018-01-02T20:40:50.242Z,8.85
2018-01-02T20:43:16.993Z,9.55
2018-01-02T20:45:43.769Z,16.30
2018-01-02T20:48:10.489Z,20.60
2018-01-02T20:50:37.230Z,26.62
2018-01-02T20:53:03.971Z,19.35
2018-01-02T20:55:30.720Z,15.43
2018-01-02T20:57:57.449Z,16.75
2018-01-02T21:00:24.202Z,14.87
2018-01-02T21:02:50.937Z,14.85
2018-01-02T21:05:18.092Z,17.35
2018-01-02T21:07:44.824Z,12.35
2018-01-02T21:10:11.582Z,13.30
2018-01-02T21:12:38.365Z,12.68
2018-01-02T21:15:05.147Z,17.52
2018-01-02T21:17:31.891Z,25.55
2018-01-02T21:19:58.641Z,23.08
2018-01-02T21:22:25.391Z,17.62
2018-01-02T21:24:52.165Z,15.73
2018-01-02T21:27:18.952Z,16.40
2018-01-02T21:29:45.716Z,15.38
2018-01-02T21:32:12.447Z,14.23
2018-01-02T21:34:39.256Z,15.85
2018-01-02T21:37:07.020Z,18.58
2018-01-02T21:39:33.794Z,15.15
2018-01-02T21:42:00.526Z,13.50
2018-01-02T21:44:27.272Z,14.38
2018-01-02T21:46:54.032Z,14.77
2018-01-02T21:49:20.771Z,14.35
2018-01-02T21:51:47.512Z,12.88
2018-01-02T21:54:14.250Z,11.38
2018-01-02T21:56:40.991Z,12.98
2018-01-02T21:59:07.737Z,12.27
2018-01-02T22:01:34.491Z,13.50
2018-01-02T22:04:01.238Z,12.88
2018-01-02T22:06:27.977Z,15.13
2018-01-02T22:08:54.718Z,13.88
2018-01-02T22:11:21.457Z,14.40
2018-01-02T22:13:48.191Z,15.40
2018-01-02T22:16:14.934Z,16.55
2018-01-02T22:18:41.677Z,14.55
2018-01-02T22:21:08.431Z,16.23
2018-01-02T22:23:35.164Z,14.50
2018-01-02T22:26:01.906Z,16.12
2018-01-02T22:28:28.702Z,15.70
2018-01-02T22:30:55.448Z,16.83
2018-01-02T22:33:22.190Z,17.40
2018-01-02T22:35:48.921Z,11.60
2018-01-02T22:38:15.664Z,11.80
2018-01-02T22:40:42.410Z,14.05
2018-01-02T22:43:09.151Z,13.25
2018-01-02T22:45:35.868Z,13.02
2018-01-02T22:48:02.602Z,14.45
2018-01-02T22:50:29.334Z,17.55
2018-01-02T22:52:56.088Z,15.45
2018-01-02T22:55:22.802Z,16.20
2018-01-02T22:57:49.533Z,13.65
2018-01-02T23:00:16.331Z,11.90
2018-01-02T23:02:43.030Z,12.60
2018-01-02T23:05:09.764Z,12.50
2018-01-02T23:07:36.502Z,12.70
2018-01-02T23:10:03.260Z,12.50
2018-01-02T23:12:30.000Z,14.38
2018-01-02T23:14:56.738Z,13.62
2018-01-02T23:17:23.456Z,12.30
2018-01-02T23:19:50.172Z,12.70
2018-01-02T23:22:16.902Z,14.35
2018-01-02T23:24:43.644Z,13.15
2018-01-02T23:27:10.385Z,15.63
2018-01-02T23:29:37.096Z,15.05
2018-01-02T23:32:03.813Z,13.55
2018-01-02T23:34:30.554Z,12.82
2018-01-02T23:36:57.290Z,14.60
2018-01-02T23:39:24.029Z,13.77
2018-01-02T23:41:50.779Z,15.93
2018-01-02T23:44:17.513Z,14.80
2018-01-02T23:46:44.258Z,14.02
2018-01-02T23:49:11.003Z,13.85
2018-01-02T23:51:37.723Z,14.40
2018-01-02T23:54:04.477Z,13.80
2018-01-02T23:56:31.204Z,15.38
2018-01-02T23:58:57.917Z,15.40
